Time;durP1;ratioP1;P1;durP2;ratioP2;P2;SDS_P1;SDS_P2;PMS_P1;PMS_P2;Temp;Humidity;BMP_temperature;BMP_pressure;BME280_temperature;BME280_humidity;BME280_pressure;Samples;Min_cycle;Max_cycle;Signal;HPM_P1;HPM_P2
2021/09/24 00:01:43;;;;;;;8.88;6.47;;;;;;;;;;6285116;28;20120;-83
2021/09/24 00:04:43;;;;;;;8.85;6.20;;;11.70;99.90;;;;;;6302886;28;20051;-84
2021/09/24 00:07:44;;;;;;;8.93;6.50;;;;;;;;;;6320101;28;20056;-83
2021/09/24 00:10:45;;;;;;;10.95;6.45;;;10.40;99.90;;;;;;6326969;28;20469;-83
2021/09/24 00:13:46;;;;;;;6.97;6.28;;;10.20;99.90;;;;;;6309985;28;20040;-84
2021/09/24 00:16:47;;;;;;;8.40;6.18;;;;;;;;;;6332826;28;20050;-84
2021/09/24 00:19:48;;;;;;;9.00;6.53;;;;;;;;;;6319626;28;20058;-84
2021/09/24 00:22:48;;;;;;;9.40;6.85;;;10.30;99.90;;;;;;6302389;28;20056;-83
2021/09/24 00:25:49;;;;;;;9.07;7.10;;;10.30;99.90;;;;;;6302211;28;20036;-84
2021/09/24 00:28:50;;;;;;;9.77;6.78;;;;;;;;;;6302707;28;20764;-83
2021/09/24 00:31:51;;;;;;;7.65;6.05;;;9.90;99.90;;;;;;6302437;28;20046;-84
2021/09/24 00:34:51;;;;;;;9.90;6.63;;;10.10;99.90;;;;;;6292251;28;20023;-83
2021/09/24 00:37:52;;;;;;;7.70;6.90;;;9.80;99.90;;;;;;6308877;28;20030;-83
2021/09/24 00:40:52;;;;;;;10.27;7.10;;;10.00;99.90;;;;;;6324591;28;20023;-82
2021/09/24 00:43:53;;;;;;;9.68;7.25;;;9.90;99.90;;;;;;6284736;28;20131;-83
2021/09/24 00:46:55;;;;;;;9.43;7.97;;;10.20;99.90;;;;;;6300765;28;20027;-83
2021/09/24 00:49:55;;;;;;;9.00;7.33;;;10.20;99.90;;;;;;6309034;28;20028;-83
2021/09/24 00:52:56;;;;;;;10.13;8.27;;;;;;;;;;6308846;28;20055;-83
2021/09/24 00:55:58;;;;;;;8.90;7.47;;;10.30;99.90;;;;;;6325371;28;20064;-84
2021/09/24 00:58:59;;;;;;;10.90;6.93;;;;;;;;;;6308897;28;20019;-84
2021/09/24 01:01:59;;;;;;;10.63;7.75;;;10.20;99.90;;;;;;6342308;28;20024;-84
2021/09/24 01:05:00;;;;;;;10.05;7.85;;;10.30;99.90;;;;;;6321463;28;20048;-84
2021/09/24 01:08:01;;;;;;;9.18;7.20;;;10.50;99.90;;;;;;6307658;28;20082;-83
2021/09/24 01:11:01;;;;;;;10.18;7.43;;;10.40;99.90;;;;;;6303842;28;20030;-83
2021/09/24 01:14:05;;;;;;;9.18;7.47;;;10.40;99.90;;;;;;6324906;28;20035;-84
2021/09/24 01:17:06;;;;;;;9.10;7.60;;;10.20;99.90;;;;;;6302218;28;20480;-84
2021/09/24 01:20:08;;;;;;;10.00;7.85;;;10.80;99.90;;;;;;6319673;28;20068;-84
2021/09/24 01:23:09;;;;;;;11.38;8.15;;;;;;;;;;6308374;28;20031;-83
2021/09/24 01:26:09;;;;;;;9.30;8.30;;;12.40;99.90;;;;;;6318639;28;20035;-84
2021/09/24 01:29:10;;;;;;;9.70;8.70;;;10.40;99.90;;;;;;6315546;28;20059;-83
2021/09/24 01:32:11;;;;;;;8.52;7.63;;;10.10;99.90;;;;;;6308087;28;20438;-83
2021/09/24 01:35:12;;;;;;;9.05;7.85;;;;;;;;;;6324302;28;20028;-84
2021/09/24 01:38:12;;;;;;;9.00;7.25;;;10.00;99.90;;;;;;6306264;28;20028;-83
2021/09/24 01:41:13;;;;;;;9.55;8.55;;;9.90;99.90;;;;;;6316417;28;20059;-83
2021/09/24 01:44:13;;;;;;;10.48;8.35;;;9.80;99.90;;;;;;6313726;28;20043;-83
2021/09/24 01:47:14;;;;;;;12.55;8.43;;;9.80;99.90;;;;;;6295485;28;20460;-83
2021/09/24 01:50:15;;;;;;;9.70;8.50;;;;;;;;;;6299154;28;20028;-83
2021/09/24 01:53:16;;;;;;;13.77;9.30;;;;;;;;;;6300640;28;20017;-83
2021/09/24 01:56:17;;;;;;;10.57;9.02;;;;;;;;;;6323149;28;20042;-83
2021/09/24 01:59:18;;;;;;;9.30;8.30;;;10.20;99.90;;;;;;6341236;28;20023;-84
2021/09/24 02:02:18;;;;;;;10.20;8.95;;;10.20;99.90;;;;;;6307610;28;20114;-84
2021/09/24 02:05:19;;;;;;;10.48;9.40;;;10.50;99.90;;;;;;6323976;28;20060;-83
2021/09/24 02:08:20;;;;;;;9.93;8.93;;;;;;;;;;6324485;28;20078;-83
2021/09/24 02:11:20;;;;;;;9.65;8.18;;;10.30;99.90;;;;;;6324495;28;20108;-83
2021/09/24 02:14:22;;;;;;;10.98;9.20;;;10.30;99.90;;;;;;6307768;28;20027;-83
2021/09/24 02:17:22;;;;;;;10.48;9.00;;;10.40;99.90;;;;;;6289612;28;20937;-83
2021/09/24 02:20:23;;;;;;;13.55;9.57;;;10.20;99.90;;;;;;6317034;28;20024;-84
2021/09/24 02:23:24;;;;;;;11.77;9.02;;;10.30;99.90;;;;;;6292988;28;20407;-84
2021/09/24 02:26:25;;;;;;;12.18;9.15;;;;;;;;;;6340733;28;20039;-84
2021/09/24 02:29:25;;;;;;;11.55;9.05;;;10.40;99.90;;;;;;6305377;28;20016;-84
2021/09/24 02:32:26;;;;;;;11.15;8.95;;;10.80;99.90;;;;;;6296358;28;20024;-84
2021/09/24 02:35:26;;;;;;;12.52;9.50;;;10.50;99.90;;;;;;6306834;28;20051;-84
2021/09/24 02:38:27;;;;;;;11.93;8.68;;;;;;;;;;6321668;28;20385;-84
2021/09/24 02:41:28;;;;;;;10.07;9.00;;;10.50;99.90;;;;;;6321511;28;20020;-84
2021/09/24 02:44:29;;;;;;;11.10;9.20;;;;;;;;;;6302679;28;20071;-84
2021/09/24 02:47:29;;;;;;;8.93;8.00;;;10.60;99.90;;;;;;6304711;28;20031;-84
2021/09/24 02:50:30;;;;;;;10.85;8.07;;;10.60;99.90;;;;;;6288008;28;20020;-84
2021/09/24 02:53:30;;;;;;;11.63;9.25;;;10.50;99.90;;;;;;6304572;28;20042;-84
2021/09/24 02:56:32;;;;;;;11.70;8.73;;;;;;;;;;6288043;28;20031;-84
2021/09/24 02:59:32;;;;;;;11.25;8.27;;;10.50;99.90;;;;;;6317497;28;20038;-85
2021/09/24 03:02:35;;;;;;;12.07;9.15;;;10.50;99.90;;;;;;6311005;28;20016;-83
2021/09/24 03:05:35;;;;;;;9.50;8.57;;;10.50;99.90;;;;;;6318759;28;20139;-84
2021/09/24 03:08:36;;;;;;;10.02;8.45;;;;;;;;;;6287370;28;20032;-84
2021/09/24 03:11:37;;;;;;;10.60;9.10;;;10.10;99.90;;;;;;6303839;28;20034;-84
2021/09/24 03:14:38;;;;;;;13.07;9.13;;;10.10;99.90;;;;;;6304392;28;20024;-84
2021/09/24 03:17:39;;;;;;;10.15;8.65;;;;;;;;;;6287034;28;20458;-84
2021/09/24 03:20:40;;;;;;;8.52;7.63;;;9.90;99.90;;;;;;6304019;28;20130;-84
2021/09/24 03:23:40;;;;;;;9.93;8.30;;;;;;;;;;6287023;28;20040;-84
2021/09/24 03:26:41;;;;;;;10.70;8.40;;;9.70;99.90;;;;;;6303536;28;20038;-84
2021/09/24 03:29:42;;;;;;;11.55;9.15;;;9.50;99.90;;;;;;6307961;28;20034;-85
2021/09/24 03:32:43;;;;;;;11.52;9.65;;;;;;;;;;6297614;28;20514;-84
2021/09/24 03:35:44;;;;;;;13.23;9.65;;;9.70;99.90;;;;;;6320212;28;20043;-84
2021/09/24 03:38:44;;;;;;;12.27;10.30;;;9.80;99.90;;;;;;6303443;28;20035;-85
2021/09/24 03:41:45;;;;;;;12.05;9.55;;;9.70;99.90;;;;;;6303768;28;20054;-85
2021/09/24 03:44:46;;;;;;;11.88;9.98;;;;;;;;;;6320913;28;20118;-84
2021/09/24 03:47:46;;;;;;;11.38;9.77;;;9.90;99.90;;;;;;6327768;28;20118;-84
2021/09/24 03:50:47;;;;;;;10.45;9.35;;;9.80;99.90;;;;;;6321317;28;20019;-84
2021/09/24 03:53:48;;;;;;;10.90;9.63;;;10.00;99.90;;;;;;6286260;28;20031;-85
2021/09/24 03:56:49;;;;;;;11.25;9.95;;;;;;;;;;6307871;28;20110;-84
2021/09/24 03:59:50;;;;;;;11.18;9.40;;;;;;;;;;6327187;28;20058;-84
2021/09/24 04:02:50;;;;;;;27.05;17.65;;;10.10;99.90;;;;;;6344254;28;20035;-85
2021/09/24 04:05:51;;;;;;;14.63;10.82;;;10.20;99.90;;;;;;6321814;28;20040;-84
2021/09/24 04:08:51;;;;;;;11.27;9.68;;;10.20;99.90;;;;;;6302749;28;20028;-84
2021/09/24 04:11:52;;;;;;;13.48;10.60;;;10.30;99.90;;;;;;6296329;28;20480;-84
2021/09/24 04:14:53;;;;;;;11.55;9.05;;;;;;;;;;6310313;28;20454;-84
2021/09/24 04:17:54;;;;;;;10.70;9.43;;;;;;;;;;6343908;28;20028;-83
2021/09/24 04:21:01;;;;;;;11.55;9.52;;;;;;;;;;6326426;28;20035;-84
2021/09/24 04:24:02;;;;;;;9.90;8.75;;;;;;;;;;6325784;28;20363;-85
2021/09/24 04:27:02;;;;;;;10.90;9.40;;;10.20;99.90;;;;;;6305972;28;20028;-84
2021/09/24 04:30:04;;;;;;;9.40;8.43;;;10.40;99.90;;;;;;6326339;28;20593;-84
2021/09/24 04:33:05;;;;;;;11.67;8.47;;;;;;;;;;6294300;28;20385;-85
2021/09/24 04:36:06;;;;;;;24.40;16.00;;;10.10;99.90;;;;;;6325843;28;20019;-83
2021/09/24 04:39:07;;;;;;;12.25;10.43;;;;;;;;;;6303254;28;20119;-81
2021/09/24 04:42:08;;;;;;;10.43;8.88;;;;;;;;;;6331676;28;20469;-81
2021/09/24 04:45:08;;;;;;;13.18;9.95;;;9.70;99.90;;;;;;6331897;28;20024;-84
2021/09/24 04:48:09;;;;;;;12.13;10.25;;;10.00;99.90;;;;;;6306342;28;20450;-83
2021/09/24 04:51:10;;;;;;;11.23;9.65;;;10.00;99.90;;;;;;6314340;28;20363;-79
2021/09/24 04:54:10;;;;;;;10.80;9.35;;;10.00;99.90;;;;;;6333406;28;20172;-79
2021/09/24 04:57:11;;;;;;;10.82;9.10;;;10.00;99.90;;;;;;6318787;28;20111;-79
2021/09/24 05:00:12;;;;;;;10.52;9.43;;;9.90;99.90;;;;;;6340979;28;20027;-80
2021/09/24 05:03:12;;;;;;;12.55;9.68;;;9.90;99.90;;;;;;6307682;28;20065;-79
2021/09/24 05:06:13;;;;;;;11.20;9.60;;;9.90;99.90;;;;;;6341605;28;20474;-80
2021/09/24 05:09:14;;;;;;;15.10;10.25;;;10.10;99.90;;;;;;6334467;28;20028;-80
2021/09/24 05:12:14;;;;;;;11.65;9.60;;;10.00;99.90;;;;;;6334153;28;20020;-78
2021/09/24 05:15:15;;;;;;;14.48;10.05;;;9.90;99.90;;;;;;6340053;28;20047;-79
2021/09/24 05:18:15;;;;;;;11.70;9.48;;;10.20;99.90;;;;;;6342227;28;20058;-80
2021/09/24 05:21:16;;;;;;;11.75;9.82;;;9.90;99.90;;;;;;6313008;28;20555;-81
2021/09/24 05:24:17;;;;;;;10.57;9.40;;;10.10;99.90;;;;;;6332003;28;20032;-79
2021/09/24 05:27:17;;;;;;;13.63;9.50;;;9.80;99.90;;;;;;6309145;28;20416;-81
2021/09/24 05:30:19;;;;;;;11.02;9.55;;;9.60;99.90;;;;;;6300880;28;20030;-80
2021/09/24 05:33:19;;;;;;;12.30;9.90;;;9.60;99.90;;;;;;6318521;28;20016;-82
2021/09/24 05:36:20;;;;;;;12.70;9.80;;;9.70;99.90;;;;;;6324916;28;20032;-80
2021/09/24 05:39:21;;;;;;;12.68;10.10;;;9.70;99.90;;;;;;6324782;28;20046;-81
2021/09/24 05:42:21;;;;;;;13.10;10.52;;;9.70;99.90;;;;;;6342623;28;20028;-79
2021/09/24 05:45:22;;;;;;;13.70;10.30;;;9.80;99.90;;;;;;6334660;28;20066;-79
2021/09/24 05:48:23;;;;;;;10.07;8.95;;;9.80;99.90;;;;;;6341229;28;20032;-81
2021/09/24 05:51:23;;;;;;;10.63;9.52;;;9.90;99.90;;;;;;6328231;28;20361;-78
2021/09/24 05:54:24;;;;;;;11.80;9.80;;;10.00;99.90;;;;;;6318866;28;20441;-78
2021/09/24 05:57:25;;;;;;;11.48;9.23;;;10.10;99.90;;;;;;6299977;28;20032;-78
2021/09/24 06:00:25;;;;;;;12.25;9.75;;;10.20;99.90;;;;;;6293194;28;20441;-79
2021/09/24 06:03:26;;;;;;;12.30;10.20;;;10.40;99.90;;;;;;6324149;28;20047;-81
2021/09/24 06:06:27;;;;;;;11.75;9.43;;;10.80;99.90;;;;;;6307965;28;20143;-78
2021/09/24 06:09:27;;;;;;;12.85;9.77;;;12.00;99.90;;;;;;6298423;28;20028;-78
2021/09/24 06:12:28;;;;;;;10.35;9.30;;;11.90;99.90;;;;;;6316785;28;20020;-78
2021/09/24 06:15:28;;;;;;;12.40;9.13;;;12.70;99.90;;;;;;6307218;28;20028;-78
2021/09/24 06:18:30;;;;;;;10.70;9.00;;;13.20;99.90;;;;;;6316806;28;20107;-77
2021/09/24 06:21:30;;;;;;;11.85;9.13;;;13.70;99.90;;;;;;6320959;28;20024;-78
2021/09/24 06:24:31;;;;;;;10.45;9.43;;;14.10;99.90;;;;;;6341247;28;20093;-78
2021/09/24 06:27:32;;;;;;;10.23;8.98;;;14.80;99.90;;;;;;6324106;28;20047;-78
2021/09/24 06:30:33;;;;;;;9.95;8.95;;;14.90;99.90;;;;;;6341118;28;20023;-78
2021/09/24 06:33:49;;;;;;;9.53;8.53;;;15.40;99.90;;;;;;6333450;28;20642;-79
2021/09/24 06:36:50;;;;;;;10.65;9.23;;;15.70;99.90;;;;;;6285803;28;20426;-78
2021/09/24 06:39:51;;;;;;;9.85;8.85;;;15.90;99.90;;;;;;6318006;28;20093;-78
2021/09/24 06:42:51;;;;;;;11.90;9.05;;;16.10;99.90;;;;;;6320305;28;20059;-78
2021/09/24 06:45:52;;;;;;;11.13;8.68;;;16.60;99.90;;;;;;6316356;28;20040;-78
2021/09/24 06:48:52;;;;;;;10.38;8.88;;;16.80;99.90;;;;;;6316442;28;20473;-78
2021/09/24 06:51:53;;;;;;;9.93;8.25;;;16.90;99.90;;;;;;6316567;28;20051;-78
2021/09/24 06:54:54;;;;;;;12.57;9.55;;;17.20;99.90;;;;;;6316723;28;20028;-78
2021/09/24 06:57:55;;;;;;;14.15;8.43;;;17.50;99.90;;;;;;6316863;28;20077;-78
2021/09/24 07:00:56;;;;;;;9.63;8.63;;;;;;;;;;6317368;28;20038;-79
2021/09/24 07:03:56;;;;;;;9.80;8.70;;;17.80;99.90;;;;;;6341954;28;20478;-79
2021/09/24 07:06:57;;;;;;;12.00;9.25;;;18.60;99.90;;;;;;6340270;28;20043;-79
2021/09/24 07:09:58;;;;;;;10.27;8.68;;;;;;;;;;6325258;28;20024;-78
2021/09/24 07:12:59;;;;;;;10.68;9.57;;;;;;;;;;6336015;28;20065;-79
2021/09/24 07:15:59;;;;;;;10.68;8.90;;;19.50;99.90;;;;;;6335934;28;20024;-77
2021/09/24 07:19:00;;;;;;;14.82;8.85;;;;;;;;;;6345229;28;20476;-78
2021/09/24 07:22:01;;;;;;;10.23;8.82;;;19.90;99.90;;;;;;6344442;28;20069;-78
2021/09/24 07:25:02;;;;;;;11.07;9.13;;;;;;;;;;6328235;28;20050;-78
2021/09/24 07:28:03;;;;;;;10.32;8.93;;;20.60;99.90;;;;;;6345927;28;20027;-79
2021/09/24 07:31:03;;;;;;;9.35;8.35;;;21.10;99.90;;;;;;6344722;28;20051;-78
2021/09/24 07:34:04;;;;;;;10.30;8.32;;;21.20;99.90;;;;;;6327987;28;20138;-78
2021/09/24 07:37:05;;;;;;;9.30;8.23;;;21.80;99.90;;;;;;6345735;28;20049;-79
2021/09/24 07:40:06;;;;;;;9.55;8.55;;;21.80;99.90;;;;;;6346130;28;20035;-79
2021/09/24 07:43:06;;;;;;;9.98;8.88;;;22.10;98.30;;;;;;6327447;28;20031;-78
2021/09/24 07:46:07;;;;;;;9.30;8.40;;;22.30;97.40;;;;;;6336223;28;20362;-78
2021/09/24 07:49:07;;;;;;;9.45;8.55;;;22.70;96.20;;;;;;6319807;28;20035;-78
2021/09/24 07:52:08;;;;;;;8.90;8.02;;;23.00;96.30;;;;;;6320585;28;20068;-78
2021/09/24 07:55:09;;;;;;;9.98;8.02;;;23.20;94.90;;;;;;6327362;28;20023;-78
2021/09/24 07:58:09;;;;;;;9.20;8.30;;;23.50;94.00;;;;;;6326961;28;20560;-78
2021/09/24 08:01:10;;;;;;;11.48;9.93;;;23.50;94.10;;;;;;6324438;28;20035;-78
2021/09/24 08:04:11;;;;;;;9.82;8.82;;;23.80;93.90;;;;;;6317780;28;20039;-79
2021/09/24 08:07:11;;;;;;;8.93;7.93;;;24.00;93.80;;;;;;6317315;28;20567;-77
2021/09/24 08:10:12;;;;;;;8.88;7.97;;;24.00;92.60;;;;;;6319954;28;20560;-78
2021/09/24 08:13:13;;;;;;;9.32;8.35;;;24.40;91.60;;;;;;6304261;28;20028;-78
2021/09/24 08:16:13;;;;;;;8.10;7.22;;;25.00;99.90;;;;;;6327036;28;20023;-79
2021/09/24 08:19:14;;;;;;;9.20;8.30;;;25.20;94.40;;;;;;6326692;28;20038;-79
2021/09/24 08:22:14;;;;;;;9.13;8.23;;;25.90;89.00;;;;;;6315122;28;20787;-78
2021/09/24 08:25:16;;;;;;;9.10;8.20;;;26.30;87.60;;;;;;6302698;28;20058;-80
2021/09/24 08:28:17;;;;;;;;;;;26.60;85.30;;;;;;6319558;28;20107;-79
2021/09/24 08:31:17;;;;;;;9.13;8.23;;;26.80;83.50;;;;;;6324508;28;19899;-79
2021/09/24 08:34:18;;;;;;;9.73;8.70;;;26.90;79.80;;;;;;6329072;28;20489;-78
2021/09/24 08:37:18;;;;;;;8.43;7.60;;;27.10;79.20;;;;;;6319068;28;20103;-79
2021/09/24 08:40:19;;;;;;;8.57;7.77;;;27.00;77.80;;;;;;6334298;28;20465;-78
2021/09/24 08:43:20;;;;;;;8.18;7.47;;;27.50;78.50;;;;;;6325748;28;20031;-78
2021/09/24 08:46:21;;;;;;;8.33;7.53;;;28.20;74.60;;;;;;6342833;28;20032;-79
2021/09/24 08:49:21;;;;;;;8.80;7.37;;;28.10;71.90;;;;;;6335936;28;20031;-79
2021/09/24 08:52:22;;;;;;;8.53;6.93;;;28.10;70.30;;;;;;6318576;28;20032;-79
2021/09/24 08:55:22;;;;;;;6.87;6.27;;;28.20;69.70;;;;;;6301308;28;20067;-80
2021/09/24 08:58:23;;;;;;;7.73;6.70;;;28.60;69.70;;;;;;6313975;28;20032;-79
2021/09/24 09:01:24;;;;;;;7.93;6.63;;;28.70;69.70;;;;;;6325883;28;20035;-79
2021/09/24 09:04:34;;;;;;;7.27;6.57;;;28.80;70.30;;;;;;6342419;28;20052;-79
2021/09/24 09:07:35;;;;;;;7.63;6.80;;;28.90;69.80;;;;;;6345589;27;20516;-79
2021/09/24 09:10:46;;;;;;;7.43;6.23;;;29.40;66.90;;;;;;6342317;28;20027;-79
2021/09/24 09:13:48;;;;;;;7.67;6.60;;;29.50;67.30;;;;;;6342460;28;20020;-78
2021/09/24 09:16:49;;;;;;;7.05;6.45;;;29.50;65.90;;;;;;6342085;28;20789;-79
2021/09/24 09:19:49;;;;;;;5.90;5.40;;;29.50;66.40;;;;;;6342264;28;20028;-80
2021/09/24 09:23:00;;;;;;;7.67;6.97;;;29.40;65.10;;;;;;6324849;28;20026;-79
2021/09/24 09:26:03;;;;;;;7.25;6.55;;;29.30;65.10;;;;;;6342022;28;20552;-79
2021/09/24 09:29:03;;;;;;;7.10;6.07;;;29.30;65.40;;;;;;6325519;28;20124;-80
2021/09/24 09:32:07;;;;;;;6.33;5.77;;;29.20;63.90;;;;;;6319888;28;20234;-80
2021/09/24 09:35:09;;;;;;;5.97;5.47;;;29.10;82.30;;;;;;6300741;28;20028;-79
2021/09/24 09:38:32;;;;;;;6.13;5.60;;;29.30;90.60;;;;;;6313758;28;20101;-79
2021/09/24 09:41:33;;;;;;;6.57;5.90;;;29.20;90.90;;;;;;6287380;28;20055;-79
2021/09/24 09:44:34;;;;;;;5.87;5.30;;;29.30;90.90;;;;;;6340761;28;20423;-80
2021/09/24 09:47:36;;;;;;;6.45;5.85;;;29.20;77.50;;;;;;6332732;28;20035;-79
2021/09/24 09:50:37;;;;;;;6.40;5.80;;;29.40;90.90;;;;;;6321017;28;20063;-80
2021/09/24 09:53:39;;;;;;;6.15;5.65;;;;;;;;;;6335333;28;20069;-79
2021/09/24 09:56:41;;;;;;;6.47;5.88;;;29.60;70.20;;;;;;6317606;28;20023;-79
2021/09/24 09:59:48;;;;;;;5.95;5.43;;;29.40;74.70;;;;;;6318482;28;20458;-79
2021/09/24 10:02:49;;;;;;;6.72;6.13;;;29.30;66.40;;;;;;6301139;28;20382;-80
2021/09/24 10:05:50;;;;;;;7.32;6.63;;;29.40;66.00;;;;;;6283162;28;20054;-79
2021/09/24 10:08:55;;;;;;;9.25;6.35;;;29.40;66.40;;;;;;6305534;28;20018;-79
2021/09/24 10:11:55;;;;;;;6.10;5.60;;;29.40;65.80;;;;;;6324730;28;20054;-80
2021/09/24 10:14:56;;;;;;;6.40;5.77;;;29.30;66.80;;;;;;6340801;28;20028;-79
2021/09/24 10:17:57;;;;;;;6.73;6.13;;;29.40;66.60;;;;;;6342891;28;20042;-80
2021/09/24 10:20:57;;;;;;;6.30;5.80;;;29.50;67.00;;;;;;6340996;28;20043;-79
2021/09/24 10:23:58;;;;;;;6.73;6.13;;;29.40;67.30;;;;;;6336482;28;20120;-80
2021/09/24 10:27:00;;;;;;;6.07;5.47;;;29.30;67.20;;;;;;6341233;28;20032;-79
2021/09/24 10:30:12;;;;;;;7.03;6.32;;;29.30;67.70;;;;;;6316372;28;20255;-79
2021/09/24 10:33:14;;;;;;;7.10;6.38;;;29.10;67.60;;;;;;6310231;28;20484;-79
2021/09/24 10:36:35;;;;;;;6.85;6.25;;;29.10;68.10;;;;;;6340748;28;20066;-78
2021/09/24 10:39:36;;;;;;;8.88;6.60;;;29.20;68.20;;;;;;6334522;28;20065;-80
2021/09/24 10:42:37;;;;;;;7.35;6.35;;;29.20;67.70;;;;;;6299314;28;20036;-79
2021/09/24 10:45:42;;;;;;;6.90;6.30;;;29.00;69.00;;;;;;6318192;28;20122;-82
2021/09/24 10:48:43;;;;;;;7.88;6.47;;;28.60;83.70;;;;;;6326854;28;20035;-78
2021/09/24 10:51:45;;;;;;;8.83;6.63;;;28.60;70.80;;;;;;6337321;28;20618;-77
2021/09/24 10:54:54;;;;;;;7.82;6.97;;;28.70;71.80;;;;;;6305043;28;20119;-78
2021/09/24 10:57:56;;;;;;;9.60;7.13;;;28.70;71.20;;;;;;6321204;28;20031;-78
2021/09/24 11:00:58;;;;;;;7.28;6.57;;;28.40;94.00;;;;;;6304145;28;20047;-77
2021/09/24 11:04:10;;;;;;;7.15;6.47;;;28.10;94.40;;;;;;6321620;28;20031;-77
2021/09/24 11:07:11;;;;;;;14.98;7.00;;;28.00;94.10;;;;;;6321303;28;20184;-78
2021/09/24 11:10:12;;;;;;;9.43;6.57;;;27.90;82.80;;;;;;6307530;28;20034;-78
2021/09/24 11:13:14;;;;;;;9.93;7.63;;;27.80;73.60;;;;;;6328859;28;20035;-78
2021/09/24 11:16:22;;;;;;;7.80;6.95;;;27.90;74.40;;;;;;6345116;28;20358;-78
2021/09/24 11:19:41;;;;;;;6.55;5.95;;;27.90;74.20;;;;;;6333062;28;20081;-78
2021/09/24 11:22:41;;;;;;;8.82;6.70;;;28.00;94.50;;;;;;6321295;28;20023;-78
2021/09/24 11:26:09;;;;;;;9.33;6.67;;;27.80;94.80;;;;;;6320281;28;20044;-78
2021/09/24 11:29:17;;;;;;;7.55;6.53;;;27.40;94.70;;;;;;6314925;28;20075;-78
2021/09/24 11:32:18;;;;;;;7.50;6.80;;;27.80;94.90;;;;;;6321746;28;20099;-79
2021/09/24 11:35:21;;;;;;;8.00;7.23;;;27.90;83.80;;;;;;6306508;28;20034;-78
2021/09/24 11:38:23;;;;;;;7.28;6.57;;;27.60;74.90;;;;;;6304825;28;20026;-78
2021/09/24 11:41:23;;;;;;;9.75;6.97;;;27.40;75.80;;;;;;6304576;28;20099;-79
2021/09/24 11:44:24;;;;;;;6.60;6.00;;;27.50;75.50;;;;;;6308264;28;20259;-78
2021/09/24 11:47:37;;;;;;;9.43;8.50;;;27.40;76.60;;;;;;6324548;28;20024;-78
2021/09/24 11:50:38;;;;;;;8.15;6.50;;;27.40;75.60;;;;;;6343940;28;20487;-79
2021/09/24 11:53:45;;;;;;;7.10;6.40;;;27.40;75.70;;;;;;6344158;28;20036;-79
2021/09/24 11:56:46;;;;;;;7.03;6.43;;;27.20;75.70;;;;;;6343563;28;20015;-79
2021/09/24 11:59:47;;;;;;;6.60;6.00;;;27.10;76.20;;;;;;6344457;28;20080;-78
2021/09/24 12:02:47;;;;;;;6.70;6.00;;;27.10;74.60;;;;;;6332677;28;20051;-78
2021/09/24 12:06:10;;;;;;;7.53;5.90;;;27.00;76.90;;;;;;6319445;28;20705;-79
2021/09/24 12:09:12;;;;;;;8.75;6.65;;;26.80;76.20;;;;;;6303031;28;20030;-78
2021/09/24 12:12:15;;;;;;;6.88;6.25;;;26.80;76.80;;;;;;6320871;28;20391;-79
2021/09/24 12:15:15;;;;;;;7.97;6.55;;;26.70;75.90;;;;;;6303541;28;20482;-77
2021/09/24 12:18:16;;;;;;;7.17;6.00;;;26.70;77.30;;;;;;6326024;28;20123;-77
2021/09/24 12:21:23;;;;;;;6.70;6.10;;;26.60;76.40;;;;;;6302016;28;20039;-80
2021/09/24 12:24:33;;;;;;;6.57;5.97;;;26.50;76.80;;;;;;6302249;28;20289;-81
2021/09/24 12:27:35;;;;;;;7.00;6.20;;;26.40;78.20;;;;;;6318815;28;20063;-80
2021/09/24 12:30:39;;;;;;;;;;;26.30;78.60;;;;;;6319645;28;20059;-82
2021/09/24 12:33:52;;;;;;;6.90;6.20;;;26.40;77.80;;;;;;6303119;28;19911;-83
2021/09/24 12:36:56;;;;;;;7.03;6.43;;;26.20;78.90;;;;;;6302359;28;20028;-81
2021/09/24 12:39:58;;;;;;;6.57;5.97;;;25.90;78.60;;;;;;6323658;28;20027;-82
2021/09/24 12:43:00;;;;;;;6.50;5.90;;;25.80;78.90;;;;;;6298892;28;20028;-83
2021/09/24 12:46:00;;;;;;;15.75;6.50;;;25.70;79.80;;;;;;6306588;28;20041;-84
2021/09/24 12:49:01;;;;;;;6.10;5.50;;;25.70;80.10;;;;;;6307540;28;20472;-83
2021/09/24 12:52:02;;;;;;;6.43;5.70;;;25.70;80.50;;;;;;6318467;28;20019;-79
2021/09/24 12:55:05;;;;;;;6.63;5.80;;;25.00;80.40;;;;;;6341450;28;20035;-81
2021/09/24 12:58:05;;;;;;;6.85;5.68;;;25.60;79.00;;;;;;6321334;28;20055;-81
2021/09/24 13:01:07;;;;;;;11.00;7.07;;;25.60;79.90;;;;;;6301649;28;20357;-79
2021/09/24 13:04:08;;;;;;;22.33;8.23;;;25.60;81.00;;;;;;6317987;28;20039;-77
2021/09/24 13:07:09;;;;;;;11.10;6.00;;;25.60;80.90;;;;;;6300751;28;20173;-78
2021/09/24 13:10:12;;;;;;;6.20;5.60;;;25.50;77.90;;;;;;6317902;28;20020;-79
2021/09/24 13:13:12;;;;;;;6.72;5.70;;;25.40;97.10;;;;;;6318996;28;20036;-79
2021/09/24 13:16:13;;;;;;;6.47;5.83;;;25.30;94.50;;;;;;6284871;28;20028;-81
2021/09/24 13:19:14;;;;;;;6.37;5.77;;;;;;;;;;6300872;28;20686;-79
2021/09/24 13:22:15;;;;;;;8.47;6.07;;;;;;;;;;6320419;28;20355;-83
2021/09/24 13:25:16;;;;;;;6.07;5.37;;;;;;;;;;6301387;28;20298;-84
2021/09/24 13:28:17;;;;;;;6.43;5.40;;;;;;;;;;6301504;28;20027;-86
2021/09/24 13:31:18;;;;;;;6.20;5.28;;;;;;;;;;6308962;28;20118;-80
2021/09/24 13:34:19;;;;;;;5.90;5.30;;;25.40;96.60;;;;;;6300668;28;20020;-83
2021/09/24 13:37:19;;;;;;;6.17;5.57;;;25.30;89.10;;;;;;6319701;28;20027;-82
2021/09/24 13:40:20;;;;;;;6.43;5.07;;;25.50;89.70;;;;;;6317627;28;20051;-82
2021/09/24 13:43:20;;;;;;;6.37;5.37;;;25.40;80.50;;;;;;6300060;28;20065;-82
2021/09/24 13:46:21;;;;;;;5.77;5.00;;;25.40;78.40;;;;;;6300781;28;20400;-81
2021/09/24 13:49:22;;;;;;;6.43;5.83;;;25.40;79.00;;;;;;6317475;28;20024;-82
2021/09/24 13:52:22;;;;;;;5.73;5.13;;;25.30;80.00;;;;;;6284468;28;20666;-83
2021/09/24 13:55:23;;;;;;;5.40;4.87;;;25.30;76.70;;;;;;6309062;28;20531;-81
2021/09/24 13:58:24;;;;;;;5.97;5.40;;;25.20;76.60;;;;;;6308937;28;20377;-79
2021/09/24 14:01:24;;;;;;;5.70;4.73;;;25.20;76.30;;;;;;6337414;28;20074;-82
2021/09/24 14:04:26;;;;;;;4.87;4.33;;;25.10;73.90;;;;;;6341508;28;20072;-81
2021/09/24 14:07:26;;;;;;;5.25;4.80;;;25.20;76.40;;;;;;6317823;28;20048;-84
2021/09/24 14:10:27;;;;;;;5.03;4.53;;;25.10;75.80;;;;;;6284955;28;20024;-82
2021/09/24 14:13:28;;;;;;;6.83;4.50;;;25.00;75.90;;;;;;6307239;28;20019;-82
2021/09/24 14:16:28;;;;;;;4.63;4.20;;;25.10;74.40;;;;;;6322166;28;20028;-82
2021/09/24 14:19:29;;;;;;;4.97;4.50;;;25.00;75.10;;;;;;6304248;28;20028;-82
2021/09/24 14:22:29;;;;;;;4.73;4.33;;;25.00;75.00;;;;;;6307221;28;20039;-84
2021/09/24 14:25:30;;;;;;;4.90;4.07;;;25.00;73.90;;;;;;6301472;28;20100;-87
2021/09/24 14:28:30;;;;;;;4.37;3.97;;;24.90;72.90;;;;;;6281659;28;20086;-83
2021/09/24 14:31:31;;;;;;;4.43;4.03;;;24.80;71.60;;;;;;6297523;28;20031;-85
2021/09/24 14:34:32;;;;;;;6.10;4.43;;;24.60;71.60;;;;;;6312383;28;20070;-83
2021/09/24 14:37:32;;;;;;;4.67;4.27;;;24.60;73.40;;;;;;6302624;28;20020;-83
2021/09/24 14:40:33;;;;;;;5.27;4.33;;;24.60;73.50;;;;;;6313194;28;20062;-84
2021/09/24 14:43:34;;;;;;;3.73;3.43;;;24.50;71.00;;;;;;6325047;28;20038;-83
2021/09/24 14:46:34;;;;;;;4.60;3.50;;;24.50;69.90;;;;;;6312182;28;20516;-82
2021/09/24 14:49:35;;;;;;;3.93;3.53;;;24.50;69.70;;;;;;6319431;28;20051;-83
2021/09/24 14:52:36;;;;;;;4.10;3.70;;;24.40;70.10;;;;;;6325309;28;20425;-83
2021/09/24 14:55:36;;;;;;;4.73;3.93;;;24.40;71.10;;;;;;6292570;28;20045;-85
2021/09/24 14:58:37;;;;;;;4.63;3.90;;;24.30;73.70;;;;;;6305631;28;20115;-84
2021/09/24 15:01:38;;;;;;;4.30;3.90;;;;;;;;;;6295400;28;20411;-87
2021/09/24 15:04:39;;;;;;;4.27;3.87;;;24.30;71.70;;;;;;6304441;28;20093;-84
2021/09/24 15:07:40;;;;;;;4.25;3.60;;;24.30;72.10;;;;;;6305098;28;20431;-87
2021/09/24 15:10:41;;;;;;;5.33;4.20;;;24.20;73.30;;;;;;6300847;28;20040;-85
2021/09/24 15:13:41;;;;;;;5.20;4.23;;;24.20;74.50;;;;;;6315518;28;20032;-86
2021/09/24 15:16:49;;;;;;;8.17;5.73;;;24.30;74.60;;;;;;6293478;28;20134;-90
2021/09/24 15:19:50;;;;;;;5.78;5.18;;;;;;;;;;6297738;28;20035;-84
2021/09/24 15:22:51;;;;;;;5.10;4.60;;;;;;;;;;6320797;28;20422;-88
2021/09/24 15:25:52;;;;;;;5.77;4.70;;;24.00;71.80;;;;;;6315666;28;20036;-85
2021/09/24 15:28:53;;;;;;;4.47;4.07;;;23.90;75.10;;;;;;6320989;28;20044;-84
2021/09/24 15:31:54;;;;;;;7.73;4.50;;;;;;;;;;6294698;28;20055;-87
2021/09/24 15:34:55;;;;;;;4.25;3.85;;;;;;;;;;6321818;28;20039;-85
2021/09/24 15:37:56;;;;;;;4.30;3.90;;;23.80;73.50;;;;;;6319048;28;20027;-85
2021/09/24 15:40:57;;;;;;;5.00;4.50;;;;;;;;;;6300634;28;20016;-84
2021/09/24 15:43:57;;;;;;;5.13;4.27;;;23.60;76.10;;;;;;6314094;28;20138;-86
2021/09/24 15:46:58;;;;;;;4.80;4.30;;;23.50;77.60;;;;;;6303507;28;20407;-80
2021/09/24 15:49:59;;;;;;;6.63;5.00;;;23.50;78.00;;;;;;6310276;28;20024;-84
2021/09/24 15:52:59;;;;;;;5.33;4.30;;;23.40;78.00;;;;;;6327571;28;20024;-82
2021/09/24 15:56:00;;;;;;;8.07;4.77;;;23.40;78.10;;;;;;6335255;28;20100;-87
2021/09/24 15:59:01;;;;;;;10.63;4.77;;;23.30;80.60;;;;;;6310478;28;20034;-85
2021/09/24 16:02:01;;;;;;;5.60;4.37;;;23.20;78.90;;;;;;6282676;28;20026;-85